Shagang Hongfa — 9V9138 — position and weather

sailwx.info

Track history (hours):
 
Tides and Currents Weather Stations Pressure Air Temp Water Temp Dewpoint Dewpoint Depression Visibility Wind Speed Wind Dir Waves Ship Positions

Shagang Hongfa

Last reported at 2015-Jun-28 15:33 UTC. Time now 2015-Jun-30 14:32 UTC.
Position N 25°11' E 120°03'.

Length 292 m; draft 18.2 m.

Type: Cargo ship. MMSI: 566178000.

Date/timePositionNaut miles runAvg speedWind from/ knotsBaromVisibWave heightAir tempDewpointWater temp
2015-Jun-28 15:33N 25°11' E 120°03'1111.1
2015-Jun-28 14:32N 24°60' E 120°00'1210.4
2015-Jun-28 13:21N 24°47' E 119°60'2010.5
2015-Jun-28 11:26N 24°27' E 119°59'1311.5
2015-Jun-28 10:19N 24°14' E 119°59'8312.2
2015-Jun-28 03:33N 22°52' E 119°55'1010.3
2015-Jun-28 02:33N 22°42' E 119°55'1110.6
2015-Jun-28 01:33N 22°31' E 119°56'1211.3
2015-Jun-28 00:32N 22°19' E 119°56'  
2015-Jun-21 20:33N 01°15' E 104°01'3 2.4
2015-Jun-21 19:29N 01°17' E 103°59'0 0.2
2015-Jun-21 18:11N 01°17' E 103°59'0 0.0
2015-Jun-21 17:14N 01°17' E 103°59'0 0.1
2015-Jun-21 16:11N 01°17' E 103°59'0 0.1
2015-Jun-21 15:32N 01°17' E 103°59'0 0.0
2015-Jun-21 14:20N 01°17' E 103°59'0 0.0
2015-Jun-21 13:32N 01°17' E 103°59'0 0.0
2015-Jun-21 12:29N 01°17' E 103°59'0 0.1
2015-Jun-21 11:32N 01°17' E 103°59'0 0.1
2015-Jun-21 10:14N 01°17' E 103°59'0 0.2
2015-Jun-21 09:34N 01°17' E 103°59'3 3.4
2015-Jun-21 08:33N 01°15' E 103°56'9 9.0
2015-Jun-21 07:34N 01°10' E 103°49'76 9.3
2015-Jun-20 23:25N 01°42' E 102°39'9 8.8
2015-Jun-20 22:26N 01°45' E 102°32'8 8.7
2015-Jun-20 21:33N 01°49' E 102°25'9 8.6
2015-Jun-20 20:34N 01°52' E 102°17'  
Track history (hours):
 
Tides and Currents Weather Stations Pressure Air Temp Water Temp Dewpoint Dewpoint Depression Visibility Wind Speed Wind Dir Waves Ship Positions

Shagang Hongfa

Last reported at 2015-Jun-28 15:33 UTC. Time now 2015-Jun-30 14:32 UTC.
Position N 25°11' E 120°03'.

Length 292 m; draft 18.2 m.

Type: Cargo ship. MMSI: 566178000.

Date/timePositionNaut miles runAvg speedWind from/ knotsBaromVisibWave heightAir tempDewpointWater temp
2015-Jun-28 15:33N 25°11' E 120°03'1111.1
2015-Jun-28 14:32N 24°60' E 120°00'1210.4
2015-Jun-28 13:21N 24°47' E 119°60'2010.5
2015-Jun-28 11:26N 24°27' E 119°59'1311.5
2015-Jun-28 10:19N 24°14' E 119°59'8312.2
2015-Jun-28 03:33N 22°52' E 119°55'1010.3
2015-Jun-28 02:33N 22°42' E 119°55'1110.6
2015-Jun-28 01:33N 22°31' E 119°56'1211.3
2015-Jun-28 00:32N 22°19' E 119°56'  
2015-Jun-21 20:33N 01°15' E 104°01'3 2.4
2015-Jun-21 19:29N 01°17' E 103°59'0 0.2
2015-Jun-21 18:11N 01°17' E 103°59'0 0.0
2015-Jun-21 17:14N 01°17' E 103°59'0 0.1
2015-Jun-21 16:11N 01°17' E 103°59'0 0.1
2015-Jun-21 15:32N 01°17' E 103°59'0 0.0
2015-Jun-21 14:20N 01°17' E 103°59'0 0.0
2015-Jun-21 13:32N 01°17' E 103°59'0 0.0
2015-Jun-21 12:29N 01°17' E 103°59'0 0.1
2015-Jun-21 11:32N 01°17' E 103°59'0 0.1
2015-Jun-21 10:14N 01°17' E 103°59'0 0.2
2015-Jun-21 09:34N 01°17' E 103°59'3 3.4
2015-Jun-21 08:33N 01°15' E 103°56'9 9.0
2015-Jun-21 07:34N 01°10' E 103°49'76 9.3
2015-Jun-20 23:25N 01°42' E 102°39'9 8.8
2015-Jun-20 22:26N 01°45' E 102°32'8 8.7
2015-Jun-20 21:33N 01°49' E 102°25'9 8.6
2015-Jun-20 20:34N 01°52' E 102°17'  

Dump ship's entire track history